Adelaide, Washington
Current Conditions -  °F | °C
As of 12:37 AM on Thursday 23 Oct 2014 (Local Time) from KBFI Reporting Station
Broken Clouds Broken Clouds  
Wind Chill: 55°   Ceiling: 6000
Heat Index: 55°   Visibility: 10mi
Dew Point: 48°   Wind: 13mph
Humidity: 77%   Direction: 170°S
Pressure: 29.73"   Gusts: NA
Location:  47.6833°N, 122.123°W
Report Text: KBFI 230737Z 17011KT 10SM SCT025 BKN060 BKN090 13/09 A2973 RMK AO2 RAE29 P0002
Loading
Personal Weather Stations






























Interactive Weather Map
Tropical Storm Tracking
New forecast layout! Learn more

10-Day Weather Forecast

Advertisements
Track Severe Weather on mobile